sensor_id;sensor_type;location;lat;lon;timestamp;pressure;altitude;pressure_sealevel;temperature;humidity
32067;BME280;18573;47.890;35.066;2022-08-03T00:01:55;99776.77;;;47.88;25.54
32067;BME280;18573;47.890;35.066;2022-08-03T00:04:24;99777.13;;;47.81;25.91
32067;BME280;18573;47.890;35.066;2022-08-03T00:06:55;99780.70;;;47.72;26.06
32067;BME280;18573;47.890;35.066;2022-08-03T00:09:24;99765.47;;;47.45;26.19
32067;BME280;18573;47.890;35.066;2022-08-03T00:11:55;99765.47;;;47.45;26.19
32067;BME280;18573;47.890;35.066;2022-08-03T00:14:24;99762.22;;;46.94;26.73
32067;BME280;18573;47.890;35.066;2022-08-03T00:16:53;99762.52;;;47.59;26.08
32067;BME280;18573;47.890;35.066;2022-08-03T00:19:23;99767.62;;;47.89;25.77
32067;BME280;18573;47.890;35.066;2022-08-03T00:21:52;99756.53;;;46.61;26.99
32067;BME280;18573;47.890;35.066;2022-08-03T00:24:21;99764.61;;;47.54;26.35
32067;BME280;18573;47.890;35.066;2022-08-03T00:26:50;99756.46;;;46.75;27.33
32067;BME280;18573;47.890;35.066;2022-08-03T00:29:19;99762.87;;;48.35;25.66
32067;BME280;18573;47.890;35.066;2022-08-03T00:31:48;99757.33;;;47.42;26.38
32067;BME280;18573;47.890;35.066;2022-08-03T00:34:19;99759.06;;;46.92;26.82
32067;BME280;18573;47.890;35.066;2022-08-03T00:36:50;99761.34;;;47.07;26.83
32067;BME280;18573;47.890;35.066;2022-08-03T00:39:19;99762.59;;;47.88;26.19
32067;BME280;18573;47.890;35.066;2022-08-03T00:41:49;99761.07;;;47.98;25.89
32067;BME280;18573;47.890;35.066;2022-08-03T00:44:18;99758.97;;;48.32;25.64
32067;BME280;18573;47.890;35.066;2022-08-03T00:46:47;99766.34;;;47.90;25.94
32067;BME280;18573;47.890;35.066;2022-08-03T00:49:16;99767.27;;;48.86;25.24
32067;BME280;18573;47.890;35.066;2022-08-03T00:51:46;99760.69;;;48.84;25.17
32067;BME280;18573;47.890;35.066;2022-08-03T00:54:15;99756.94;;;48.03;25.77
32067;BME280;18573;47.890;35.066;2022-08-03T00:56:46;99758.72;;;48.65;25.23
32067;BME280;18573;47.890;35.066;2022-08-03T00:59:18;99759.22;;;48.09;25.92
32067;BME280;18573;47.890;35.066;2022-08-03T01:01:47;99759.22;;;48.09;25.92
32067;BME280;18573;47.890;35.066;2022-08-03T01:04:16;99756.00;;;48.16;25.72
32067;BME280;18573;47.890;35.066;2022-08-03T01:07:04;99755.50;;;46.44;27.35
32067;BME280;18573;47.890;35.066;2022-08-03T01:09:48;99752.06;;;47.31;26.60
32067;BME280;18573;47.890;35.066;2022-08-03T01:15:18;99760.17;;;46.61;26.95
32067;BME280;18573;47.890;35.066;2022-08-03T01:17:50;99759.47;;;47.24;26.41
32067;BME280;18573;47.890;35.066;2022-08-03T01:20:20;99762.95;;;46.70;26.53
32067;BME280;18573;47.890;35.066;2022-08-03T01:25:35;99757.95;;;46.61;26.60
32067;BME280;18573;47.890;35.066;2022-08-03T01:30:52;99761.88;;;46.63;26.86
32067;BME280;18573;47.890;35.066;2022-08-03T01:33:30;99756.13;;;47.34;26.17
32067;BME280;18573;47.890;35.066;2022-08-03T01:35:59;99757.10;;;47.70;25.84
32067;BME280;18573;47.890;35.066;2022-08-03T01:38:31;99755.14;;;47.91;25.84
32067;BME280;18573;47.890;35.066;2022-08-03T01:41:06;99756.67;;;47.97;25.81
32067;BME280;18573;47.890;35.066;2022-08-03T01:43:36;99757.85;;;47.51;26.25
32067;BME280;18573;47.890;35.066;2022-08-03T01:46:10;99759.00;;;47.30;26.41
32067;BME280;18573;47.890;35.066;2022-08-03T01:48:41;99761.55;;;46.10;27.29
32067;BME280;18573;47.890;35.066;2022-08-03T01:51:11;99760.34;;;46.86;26.48
32067;BME280;18573;47.890;35.066;2022-08-03T01:53:42;99758.22;;;46.72;26.64
32067;BME280;18573;47.890;35.066;2022-08-03T01:56:13;99757.55;;;47.34;25.88
32067;BME280;18573;47.890;35.066;2022-08-03T01:58:45;99762.45;;;48.17;25.08
32067;BME280;18573;47.890;35.066;2022-08-03T02:01:16;99761.76;;;47.39;26.00
32067;BME280;18573;47.890;35.066;2022-08-03T02:03:48;99760.98;;;47.92;25.22
32067;BME280;18573;47.890;35.066;2022-08-03T02:06:20;99763.45;;;47.94;25.21
32067;BME280;18573;47.890;35.066;2022-08-03T02:08:53;99756.19;;;47.83;25.27
32067;BME280;18573;47.890;35.066;2022-08-03T02:11:23;99762.27;;;47.52;25.43
32067;BME280;18573;47.890;35.066;2022-08-03T02:13:53;99762.13;;;47.27;25.77
32067;BME280;18573;47.890;35.066;2022-08-03T02:16:25;99762.23;;;45.77;27.14
32067;BME280;18573;47.890;35.066;2022-08-03T02:18:57;99765.06;;;47.57;25.44
32067;BME280;18573;47.890;35.066;2022-08-03T02:21:30;99758.70;;;46.28;26.54
32067;BME280;18573;47.890;35.066;2022-08-03T02:24:02;99764.27;;;46.89;26.11
32067;BME280;18573;47.890;35.066;2022-08-03T02:26:33;99774.00;;;46.59;26.43
32067;BME280;18573;47.890;35.066;2022-08-03T02:29:06;99775.44;;;46.55;26.73
32067;BME280;18573;47.890;35.066;2022-08-03T02:31:37;99773.25;;;46.83;26.23
32067;BME280;18573;47.890;35.066;2022-08-03T02:34:11;99773.25;;;46.83;26.23
32067;BME280;18573;47.890;35.066;2022-08-03T02:36:43;99771.36;;;47.37;25.70
32067;BME280;18573;47.890;35.066;2022-08-03T02:39:15;99769.02;;;46.78;26.28
32067;BME280;18573;47.890;35.066;2022-08-03T02:41:55;99776.62;;;46.07;27.20
32067;BME280;18573;47.890;35.066;2022-08-03T02:44:22;99772.47;;;46.44;26.75
32067;BME280;18573;47.890;35.066;2022-08-03T02:46:54;99776.17;;;46.08;27.86
32067;BME280;18573;47.890;35.066;2022-08-03T02:49:24;99776.17;;;46.08;27.86
32067;BME280;18573;47.890;35.066;2022-08-03T02:51:57;99771.95;;;45.99;27.48
32067;BME280;18573;47.890;35.066;2022-08-03T02:54:27;99771.95;;;45.99;27.48
32067;BME280;18573;47.890;35.066;2022-08-03T02:56:58;99772.11;;;45.36;28.20
32067;BME280;18573;47.890;35.066;2022-08-03T02:59:30;99769.61;;;45.61;27.82
32067;BME280;18573;47.890;35.066;2022-08-03T03:02:00;99772.92;;;45.41;28.07
32067;BME280;18573;47.890;35.066;2022-08-03T03:04:30;99772.56;;;44.71;28.73
32067;BME280;18573;47.890;35.066;2022-08-03T03:07:00;99773.48;;;46.23;26.79
32067;BME280;18573;47.890;35.066;2022-08-03T03:09:32;99773.48;;;46.23;26.79
32067;BME280;18573;47.890;35.066;2022-08-03T03:12:04;99775.52;;;46.69;27.08
32067;BME280;18573;47.890;35.066;2022-08-03T03:14:35;99775.52;;;46.69;27.08
32067;BME280;18573;47.890;35.066;2022-08-03T03:17:06;99780.72;;;47.24;26.22
32067;BME280;18573;47.890;35.066;2022-08-03T03:19:38;99779.73;;;46.74;26.73
32067;BME280;18573;47.890;35.066;2022-08-03T03:22:08;99783.97;;;47.36;26.07
32067;BME280;18573;47.890;35.066;2022-08-03T03:24:39;99782.40;;;47.11;26.43
32067;BME280;18573;47.890;35.066;2022-08-03T03:27:09;99780.23;;;46.30;27.03
32067;BME280;18573;47.890;35.066;2022-08-03T03:29:41;99781.97;;;48.19;25.27
32067;BME280;18573;47.890;35.066;2022-08-03T03:32:10;99781.97;;;48.19;25.27
32067;BME280;18573;47.890;35.066;2022-08-03T03:34:40;99787.75;;;48.10;25.41
32067;BME280;18573;47.890;35.066;2022-08-03T03:37:10;99791.47;;;47.43;26.00
32067;BME280;18573;47.890;35.066;2022-08-03T03:39:40;99789.94;;;47.57;25.78
32067;BME280;18573;47.890;35.066;2022-08-03T03:42:09;99793.66;;;47.44;26.00
32067;BME280;18573;47.890;35.066;2022-08-03T03:44:38;99792.46;;;47.36;26.20
32067;BME280;18573;47.890;35.066;2022-08-03T03:47:08;99786.00;;;47.93;25.08
32067;BME280;18573;47.890;35.066;2022-08-03T03:49:40;99786.00;;;47.93;25.08
32067;BME280;18573;47.890;35.066;2022-08-03T03:52:10;99800.39;;;49.81;23.85
32067;BME280;18573;47.890;35.066;2022-08-03T03:54:40;99798.20;;;48.74;24.36
32067;BME280;18573;47.890;35.066;2022-08-03T03:57:10;99798.20;;;48.74;24.36
32067;BME280;18573;47.890;35.066;2022-08-03T03:59:41;99794.70;;;50.17;23.50
32067;BME280;18573;47.890;35.066;2022-08-03T04:02:11;99798.22;;;49.29;23.62
32067;BME280;18573;47.890;35.066;2022-08-03T04:04:40;99798.22;;;49.29;23.62
32067;BME280;18573;47.890;35.066;2022-08-03T04:07:30;99801.13;;;50.81;22.98
32067;BME280;18573;47.890;35.066;2022-08-03T04:10:19;99801.13;;;50.81;22.98
32067;BME280;18573;47.890;35.066;2022-08-03T04:13:05;99804.81;;;49.31;24.42
32067;BME280;18573;47.890;35.066;2022-08-03T04:15:36;99800.12;;;50.62;23.15
32067;BME280;18573;47.890;35.066;2022-08-03T04:18:08;99805.73;;;51.43;22.80
32067;BME280;18573;47.890;35.066;2022-08-03T04:20:40;99798.23;;;48.84;24.66
32067;BME280;18573;47.890;35.066;2022-08-03T04:23:13;99806.69;;;52.05;22.38
32067;BME280;18573;47.890;35.066;2022-08-03T04:25:45;99809.34;;;53.10;21.68
32067;BME280;18573;47.890;35.066;2022-08-03T04:28:16;99809.34;;;53.10;21.68
32067;BME280;18573;47.890;35.066;2022-08-03T04:30:49;99817.95;;;54.04;20.92
32067;BME280;18573;47.890;35.066;2022-08-03T04:33:21;99813.59;;;52.70;21.88
32067;BME280;18573;47.890;35.066;2022-08-03T04:35:54;99803.84;;;49.80;24.16
32067;BME280;18573;47.890;35.066;2022-08-03T04:38:29;99807.08;;;52.75;21.93
32067;BME280;18573;47.890;35.066;2022-08-03T04:41:00;99801.77;;;51.88;22.76
32067;BME280;18573;47.890;35.066;2022-08-03T04:43:31;99801.77;;;51.88;22.76
32067;BME280;18573;47.890;35.066;2022-08-03T04:46:02;99813.52;;;51.86;22.75
32067;BME280;18573;47.890;35.066;2022-08-03T04:48:32;99804.50;;;51.22;23.28
32067;BME280;18573;47.890;35.066;2022-08-03T04:51:02;99803.73;;;51.65;22.97
32067;BME280;18573;47.890;35.066;2022-08-03T04:53:31;99816.04;;;52.50;22.40
32067;BME280;18573;47.890;35.066;2022-08-03T04:56:04;99816.04;;;52.50;22.40
32067;BME280;18573;47.890;35.066;2022-08-03T04:58:33;99809.78;;;50.29;23.93
32067;BME280;18573;47.890;35.066;2022-08-03T05:01:02;99805.48;;;51.46;23.01
32067;BME280;18573;47.890;35.066;2022-08-03T05:03:31;99817.63;;;51.74;22.95
32067;BME280;18573;47.890;35.066;2022-08-03T05:06:01;99814.53;;;50.22;24.33
32067;BME280;18573;47.890;35.066;2022-08-03T05:08:32;99822.67;;;51.09;23.53
32067;BME280;18573;47.890;35.066;2022-08-03T05:11:01;99822.67;;;51.09;23.53
32067;BME280;18573;47.890;35.066;2022-08-03T05:13:30;99819.89;;;50.46;24.19
32067;BME280;18573;47.890;35.066;2022-08-03T05:15:59;99825.88;;;52.04;22.93
32067;BME280;18573;47.890;35.066;2022-08-03T05:18:28;99824.58;;;52.05;22.93
32067;BME280;18573;47.890;35.066;2022-08-03T05:20:59;99821.23;;;48.16;26.26
32067;BME280;18573;47.890;35.066;2022-08-03T05:23:28;99828.33;;;50.66;24.30
32067;BME280;18573;47.890;35.066;2022-08-03T05:25:57;99829.55;;;52.44;22.69
32067;BME280;18573;47.890;35.066;2022-08-03T05:28:26;99827.88;;;51.43;23.60
32067;BME280;18573;47.890;35.066;2022-08-03T05:30:56;99836.30;;;52.41;22.78
32067;BME280;18573;47.890;35.066;2022-08-03T05:33:25;99836.09;;;51.84;23.46
32067;BME280;18573;47.890;35.066;2022-08-03T05:35:54;99836.09;;;51.84;23.46
32067;BME280;18573;47.890;35.066;2022-08-03T05:38:26;99838.25;;;48.76;25.93
32067;BME280;18573;47.890;35.066;2022-08-03T05:40:57;99840.14;;;51.55;23.52
32067;BME280;18573;47.890;35.066;2022-08-03T05:43:28;99850.54;;;52.02;23.16
32067;BME280;18573;47.890;35.066;2022-08-03T05:45:58;99858.47;;;49.08;24.97
32067;BME280;18573;47.890;35.066;2022-08-03T05:48:29;99858.47;;;49.08;24.97
32067;BME280;18573;47.890;35.066;2022-08-03T05:50:59;99857.27;;;49.91;24.95
32067;BME280;18573;47.890;35.066;2022-08-03T05:53:28;99857.27;;;49.91;24.95
32067;BME280;18573;47.890;35.066;2022-08-03T05:55:58;99844.15;;;46.37;28.23
32067;BME280;18573;47.890;35.066;2022-08-03T05:58:30;99852.91;;;51.71;23.95
32067;BME280;18573;47.890;35.066;2022-08-03T06:01:00;99852.91;;;51.71;23.95
32067;BME280;18573;47.890;35.066;2022-08-03T06:03:29;99853.79;;;52.16;23.64
32067;BME280;18573;47.890;35.066;2022-08-03T06:05:58;99853.79;;;52.16;23.64
32067;BME280;18573;47.890;35.066;2022-08-03T06:08:27;99847.44;;;51.13;23.67
32067;BME280;18573;47.890;35.066;2022-08-03T06:10:56;99851.55;;;50.85;24.02
32067;BME280;18573;47.890;35.066;2022-08-03T06:13:25;99847.41;;;48.75;25.86
32067;BME280;18573;47.890;35.066;2022-08-03T06:15:55;99852.97;;;48.55;25.27
32067;BME280;18573;47.890;35.066;2022-08-03T06:18:24;99852.97;;;48.55;25.27
32067;BME280;18573;47.890;35.066;2022-08-03T06:20:53;99859.74;;;51.36;22.96
32067;BME280;18573;47.890;35.066;2022-08-03T06:23:23;99857.91;;;47.66;25.58
32067;BME280;18573;47.890;35.066;2022-08-03T06:25:53;99863.69;;;48.70;25.82
32067;BME280;18573;47.890;35.066;2022-08-03T06:28:22;99871.06;;;49.67;23.83
32067;BME280;18573;47.890;35.066;2022-08-03T06:30:53;99858.96;;;48.97;25.63
32067;BME280;18573;47.890;35.066;2022-08-03T06:33:24;99858.96;;;48.97;25.63
32067;BME280;18573;47.890;35.066;2022-08-03T06:35:55;99866.90;;;48.92;25.33
32067;BME280;18573;47.890;35.066;2022-08-03T06:38:24;99871.63;;;49.51;24.67
32067;BME280;18573;47.890;35.066;2022-08-03T06:40:53;99869.37;;;49.45;24.90
32067;BME280;18573;47.890;35.066;2022-08-03T06:43:22;99865.52;;;48.48;25.72
32067;BME280;18573;47.890;35.066;2022-08-03T06:45:51;99866.73;;;46.60;27.68
32067;BME280;18573;47.890;35.066;2022-08-03T06:48:21;99866.73;;;46.60;27.68
32067;BME280;18573;47.890;35.066;2022-08-03T06:50:50;99863.51;;;46.85;27.32
32067;BME280;18573;47.890;35.066;2022-08-03T06:53:19;99874.05;;;47.75;26.59
32067;BME280;18573;47.890;35.066;2022-08-03T06:55:49;99876.99;;;47.81;26.50
32067;BME280;18573;47.890;35.066;2022-08-03T06:58:20;99877.41;;;48.23;25.79
32067;BME280;18573;47.890;35.066;2022-08-03T07:00:49;99877.41;;;48.23;25.79
32067;BME280;18573;47.890;35.066;2022-08-03T07:03:18;99881.52;;;47.87;26.41
32067;BME280;18573;47.890;35.066;2022-08-03T07:05:48;99881.52;;;47.87;26.41
32067;BME280;18573;47.890;35.066;2022-08-03T07:08:18;99878.89;;;47.31;27.04
32067;BME280;18573;47.890;35.066;2022-08-03T07:10:49;99893.51;;;50.48;24.07
32067;BME280;18573;47.890;35.066;2022-08-03T07:13:18;99890.70;;;48.80;25.20
32067;BME280;18573;47.890;35.066;2022-08-03T07:15:48;99890.24;;;49.52;25.02
32067;BME280;18573;47.890;35.066;2022-08-03T07:18:19;99889.23;;;48.85;25.13
32067;BME280;18573;47.890;35.066;2022-08-03T07:20:50;99900.37;;;49.38;24.77
32067;BME280;18573;47.890;35.066;2022-08-03T07:23:19;99889.75;;;47.57;25.99
32067;BME280;18573;47.890;35.066;2022-08-03T07:25:48;99897.07;;;49.60;24.41
32067;BME280;18573;47.890;35.066;2022-08-03T07:28:17;99902.80;;;51.06;22.47
32067;BME280;18573;47.890;35.066;2022-08-03T07:30:47;99902.80;;;51.06;22.47
32067;BME280;18573;47.890;35.066;2022-08-03T07:33:16;99903.78;;;50.14;23.03
32067;BME280;18573;47.890;35.066;2022-08-03T07:35:45;99907.61;;;50.73;22.64
32067;BME280;18573;47.890;35.066;2022-08-03T07:38:14;99911.39;;;51.82;21.79
32067;BME280;18573;47.890;35.066;2022-08-03T07:40:43;99915.34;;;50.99;22.48
32067;BME280;18573;47.890;35.066;2022-08-03T07:43:13;99905.38;;;51.20;22.71
32067;BME280;18573;47.890;35.066;2022-08-03T07:45:42;99905.68;;;49.31;24.68
32067;BME280;18573;47.890;35.066;2022-08-03T07:48:11;99895.08;;;48.56;25.14
32067;BME280;18573;47.890;35.066;2022-08-03T07:50:41;99904.58;;;51.57;22.46
32067;BME280;18573;47.890;35.066;2022-08-03T07:53:10;99904.58;;;51.57;22.46
32067;BME280;18573;47.890;35.066;2022-08-03T07:55:39;99906.30;;;52.03;22.41
32067;BME280;18573;47.890;35.066;2022-08-03T07:58:10;99914.46;;;51.67;22.56
32067;BME280;18573;47.890;35.066;2022-08-03T08:00:43;99912.12;;;50.54;23.41
32067;BME280;18573;47.890;35.066;2022-08-03T08:03:12;99914.57;;;51.41;22.66
32067;BME280;18573;47.890;35.066;2022-08-03T08:05:42;99918.68;;;50.81;23.36
32067;BME280;18573;47.890;35.066;2022-08-03T08:08:11;99914.58;;;51.20;22.77
32067;BME280;18573;47.890;35.066;2022-08-03T08:10:40;99919.78;;;50.11;23.44
32067;BME280;18573;47.890;35.066;2022-08-03T08:13:11;99922.25;;;50.60;23.62
32067;BME280;18573;47.890;35.066;2022-08-03T08:15:40;99922.02;;;51.27;22.85
32067;BME280;18573;47.890;35.066;2022-08-03T08:18:10;99930.55;;;53.20;21.57
32067;BME280;18573;47.890;35.066;2022-08-03T08:20:39;99932.80;;;53.44;21.15
32067;BME280;18573;47.890;35.066;2022-08-03T08:23:10;99936.55;;;52.88;21.42
32067;BME280;18573;47.890;35.066;2022-08-03T08:25:41;99929.50;;;50.61;22.75
32067;BME280;18573;47.890;35.066;2022-08-03T08:28:10;99929.55;;;52.17;21.63
32067;BME280;18573;47.890;35.066;2022-08-03T08:30:41;99940.77;;;53.27;20.33
32067;BME280;18573;47.890;35.066;2022-08-03T08:33:10;99940.77;;;53.27;20.33
32067;BME280;18573;47.890;35.066;2022-08-03T08:35:41;99948.52;;;55.02;19.91
32067;BME280;18573;47.890;35.066;2022-08-03T08:38:10;99938.55;;;52.31;20.84
32067;BME280;18573;47.890;35.066;2022-08-03T08:40:40;99939.48;;;50.77;22.41
32067;BME280;18573;47.890;35.066;2022-08-03T08:43:09;99938.62;;;51.83;22.14
32067;BME280;18573;47.890;35.066;2022-08-03T08:45:40;99932.98;;;52.44;21.34
32067;BME280;18573;47.890;35.066;2022-08-03T08:48:10;99936.80;;;53.01;21.15
32067;BME280;18573;47.890;35.066;2022-08-03T08:50:41;99936.47;;;50.34;22.99
32067;BME280;18573;47.890;35.066;2022-08-03T08:53:12;99933.67;;;52.66;20.68
32067;BME280;18573;47.890;35.066;2022-08-03T08:55:45;99933.67;;;52.66;20.68
32067;BME280;18573;47.890;35.066;2022-08-03T08:58:18;99939.22;;;53.09;20.67
32067;BME280;18573;47.890;35.066;2022-08-03T09:00:48;99934.05;;;52.85;21.23
32067;BME280;18573;47.890;35.066;2022-08-03T09:03:18;99934.02;;;54.00;20.62
32067;BME280;18573;47.890;35.066;2022-08-03T09:05:49;99934.02;;;54.00;20.62
32067;BME280;18573;47.890;35.066;2022-08-03T09:08:21;99930.99;;;51.84;22.04
32067;BME280;18573;47.890;35.066;2022-08-03T09:10:50;99929.02;;;52.19;21.61
32067;BME280;18573;47.890;35.066;2022-08-03T09:13:19;99930.41;;;52.96;20.17
32067;BME280;18573;47.890;35.066;2022-08-03T09:18:38;99939.70;;;55.37;19.21
32067;BME280;18573;47.890;35.066;2022-08-03T09:21:19;99925.63;;;51.49;21.86
32067;BME280;18573;47.890;35.066;2022-08-03T09:23:53;99925.63;;;51.49;21.86
32067;BME280;18573;47.890;35.066;2022-08-03T09:26:26;99928.61;;;52.10;21.28
32067;BME280;18573;47.890;35.066;2022-08-03T09:29:09;99928.61;;;52.10;21.28
32067;BME280;18573;47.890;35.066;2022-08-03T09:31:42;99940.34;;;50.11;22.92
32067;BME280;18573;47.890;35.066;2022-08-03T09:34:15;99928.59;;;51.23;21.95
32067;BME280;18573;47.890;35.066;2022-08-03T09:36:46;99928.59;;;51.23;21.95
32067;BME280;18573;47.890;35.066;2022-08-03T09:39:20;99932.53;;;50.94;22.21
32067;BME280;18573;47.890;35.066;2022-08-03T09:42:09;99939.84;;;50.59;22.61
32067;BME280;18573;47.890;35.066;2022-08-03T09:44:42;99938.36;;;49.46;22.64
32067;BME280;18573;47.890;35.066;2022-08-03T09:47:14;99934.23;;;51.18;22.07
32067;BME280;18573;47.890;35.066;2022-08-03T09:49:55;99937.03;;;51.98;20.87
32067;BME280;18573;47.890;35.066;2022-08-03T09:52:19;99937.03;;;51.98;20.87
32067;BME280;18573;47.890;35.066;2022-08-03T09:54:52;99948.55;;;51.07;22.07
32067;BME280;18573;47.890;35.066;2022-08-03T09:57:23;99934.73;;;50.53;22.36
32067;BME280;18573;47.890;35.066;2022-08-03T09:59:54;99934.67;;;48.55;24.45
32067;BME280;18573;47.890;35.066;2022-08-03T10:02:27;99934.67;;;48.55;24.45
32067;BME280;18573;47.890;35.066;2022-08-03T10:04:56;99934.56;;;50.26;22.51
32067;BME280;18573;47.890;35.066;2022-08-03T10:07:25;99941.27;;;51.06;22.02
32067;BME280;18573;47.890;35.066;2022-08-03T10:09:57;99938.30;;;52.35;21.02
32067;BME280;18573;47.890;35.066;2022-08-03T10:12:29;99948.33;;;50.43;22.23
32067;BME280;18573;47.890;35.066;2022-08-03T10:14:58;99948.37;;;51.59;21.27
32067;BME280;18573;47.890;35.066;2022-08-03T10:17:27;99948.37;;;51.59;21.27
32067;BME280;18573;47.890;35.066;2022-08-03T10:19:56;99948.03;;;51.68;20.61
32067;BME280;18573;47.890;35.066;2022-08-03T10:22:28;99948.03;;;51.68;20.61
32067;BME280;18573;47.890;35.066;2022-08-03T10:25:06;99945.48;;;48.47;22.95
32067;BME280;18573;47.890;35.066;2022-08-03T10:27:38;99947.75;;;50.23;22.24
32067;BME280;18573;47.890;35.066;2022-08-03T10:30:09;99937.40;;;48.30;23.67
32067;BME280;18573;47.890;35.066;2022-08-03T10:32:57;99938.62;;;51.83;21.27
32067;BME280;18573;47.890;35.066;2022-08-03T10:35:26;99938.62;;;51.83;21.27
32067;BME280;18573;47.890;35.066;2022-08-03T10:38:02;99937.02;;;50.49;22.16
32067;BME280;18573;47.890;35.066;2022-08-03T10:40:32;99937.02;;;50.49;22.16
32067;BME280;18573;47.890;35.066;2022-08-03T10:43:06;99938.11;;;49.95;22.37
32067;BME280;18573;47.890;35.066;2022-08-03T10:45:39;99938.11;;;49.95;22.37
32067;BME280;18573;47.890;35.066;2022-08-03T10:48:08;99934.34;;;48.68;22.35
32067;BME280;18573;47.890;35.066;2022-08-03T10:50:38;99924.30;;;47.94;22.79
32067;BME280;18573;47.890;35.066;2022-08-03T10:53:09;99933.28;;;48.31;22.04
32067;BME280;18573;47.890;35.066;2022-08-03T10:55:42;99937.80;;;50.23;21.42
32067;BME280;18573;47.890;35.066;2022-08-03T11:01:13;99944.05;;;52.57;19.96
32067;BME280;18573;47.890;35.066;2022-08-03T11:06:26;99943.97;;;49.50;21.70
32067;BME280;18573;47.890;35.066;2022-08-03T11:11:43;99954.35;;;51.03;20.51
32067;BME280;18573;47.890;35.066;2022-08-03T11:14:15;99937.01;;;49.51;21.83
32067;BME280;18573;47.890;35.066;2022-08-03T11:16:50;99943.66;;;50.40;20.97
32067;BME280;18573;47.890;35.066;2022-08-03T11:19:20;99943.66;;;50.40;20.97
32067;BME280;18573;47.890;35.066;2022-08-03T11:21:55;99940.48;;;50.48;20.72
32067;BME280;18573;47.890;35.066;2022-08-03T11:27:20;99936.64;;;50.93;20.42
32067;BME280;18573;47.890;35.066;2022-08-03T11:38:01;99928.60;;;49.17;21.41
32067;BME280;18573;47.890;35.066;2022-08-03T11:40:43;99928.60;;;49.17;21.41
32067;BME280;18573;47.890;35.066;2022-08-03T11:46:09;99929.42;;;48.43;22.20
32067;BME280;18573;47.890;35.066;2022-08-03T11:48:44;99936.60;;;49.43;21.25
32067;BME280;18573;47.890;35.066;2022-08-03T11:51:28;99936.99;;;48.72;22.10
32067;BME280;18573;47.890;35.066;2022-08-03T11:54:01;99941.50;;;49.88;21.17
32067;BME280;18573;47.890;35.066;2022-08-03T11:56:48;99926.09;;;48.26;22.57
32067;BME280;18573;47.890;35.066;2022-08-03T11:59:17;99926.09;;;48.26;22.57
32067;BME280;18573;47.890;35.066;2022-08-03T12:01:49;99938.05;;;49.54;21.69
32067;BME280;18573;47.890;35.066;2022-08-03T12:04:19;99930.58;;;48.17;22.50
32067;BME280;18573;47.890;35.066;2022-08-03T12:06:58;99930.58;;;48.17;22.50
32067;BME280;18573;47.890;35.066;2022-08-03T12:09:28;99932.33;;;48.83;22.15
32067;BME280;18573;47.890;35.066;2022-08-03T12:11:57;99925.63;;;46.89;23.12
32067;BME280;18573;47.890;35.066;2022-08-03T12:14:28;99931.87;;;48.51;21.42
32067;BME280;18573;47.890;35.066;2022-08-03T12:16:59;99931.22;;;47.12;23.68
32067;BME280;18573;47.890;35.066;2022-08-03T12:19:40;99922.03;;;47.83;22.34
32067;BME280;18573;47.890;35.066;2022-08-03T12:22:01;99920.52;;;48.80;22.13
32067;BME280;18573;47.890;35.066;2022-08-03T12:24:42;99926.66;;;51.09;20.12
32067;BME280;18573;47.890;35.066;2022-08-03T12:27:02;99926.66;;;51.09;20.12
32067;BME280;18573;47.890;35.066;2022-08-03T12:29:32;99922.70;;;49.10;21.49
32067;BME280;18573;47.890;35.066;2022-08-03T12:32:01;99913.48;;;48.46;20.50
32067;BME280;18573;47.890;35.066;2022-08-03T12:34:47;99915.11;;;48.97;20.82
32067;BME280;18573;47.890;35.066;2022-08-03T12:37:20;99915.11;;;48.97;20.82
32067;BME280;18573;47.890;35.066;2022-08-03T12:39:55;99909.37;;;49.02;21.15
32067;BME280;18573;47.890;35.066;2022-08-03T12:45:22;99904.71;;;48.69;20.64
32067;BME280;18573;47.890;35.066;2022-08-03T12:47:57;99904.71;;;48.69;20.64
32067;BME280;18573;47.890;35.066;2022-08-03T12:50:31;99895.05;;;48.86;22.48
32067;BME280;18573;47.890;35.066;2022-08-03T12:53:03;99891.64;;;49.42;21.15
32067;BME280;18573;47.890;35.066;2022-08-03T12:55:40;99891.64;;;49.42;21.15
32067;BME280;18573;47.890;35.066;2022-08-03T12:58:07;99889.66;;;49.58;21.18
32067;BME280;18573;47.890;35.066;2022-08-03T13:00:39;99888.95;;;49.53;21.40
32067;BME280;18573;47.890;35.066;2022-08-03T13:03:08;99877.86;;;46.73;23.28
32067;BME280;18573;47.890;35.066;2022-08-03T13:05:43;99877.86;;;46.73;23.28
32067;BME280;18573;47.890;35.066;2022-08-03T13:08:24;99877.27;;;47.11;22.66
32067;BME280;18573;47.890;35.066;2022-08-03T13:10:53;99882.90;;;49.76;20.90
32067;BME280;18573;47.890;35.066;2022-08-03T13:13:38;99875.05;;;48.40;21.95
32067;BME280;18573;47.890;35.066;2022-08-03T13:16:07;99875.05;;;48.40;21.95
32067;BME280;18573;47.890;35.066;2022-08-03T13:18:36;99884.48;;;46.65;23.19
32067;BME280;18573;47.890;35.066;2022-08-03T13:21:08;99884.48;;;46.65;23.19
32067;BME280;18573;47.890;35.066;2022-08-03T13:23:37;99883.42;;;48.01;23.12
32067;BME280;18573;47.890;35.066;2022-08-03T13:26:06;99883.42;;;48.01;23.12
32067;BME280;18573;47.890;35.066;2022-08-03T13:28:35;99883.16;;;47.51;22.65
32067;BME280;18573;47.890;35.066;2022-08-03T13:31:05;99896.09;;;49.03;21.49
32067;BME280;18573;47.890;35.066;2022-08-03T13:33:34;99896.09;;;49.03;21.49
32067;BME280;18573;47.890;35.066;2022-08-03T13:36:04;99894.33;;;47.54;22.07
32067;BME280;18573;47.890;35.066;2022-08-03T13:38:33;99897.42;;;49.88;20.03
32067;BME280;18573;47.890;35.066;2022-08-03T13:41:02;99897.42;;;49.88;20.03
32067;BME280;18573;47.890;35.066;2022-08-03T13:43:31;99904.11;;;49.55;20.88
32067;BME280;18573;47.890;35.066;2022-08-03T13:46:01;99905.91;;;48.73;20.65
32067;BME280;18573;47.890;35.066;2022-08-03T13:48:30;99914.08;;;49.05;21.59